Share

Granville, ND

2:25 AM CDT on April 23, 2014 (GMT -0500)
Deering Mobile Home Estates (KNDDEERI2) Elev 1549 ft | 48.40 °N, 101.05 °W | Change Station
Active Advisory: Flood Warning

Current weather conditions updated 11 minutes ago

Clear
Clear
46.6 °F
Feels Like 40 °F
N
17.6
Wind Variable Wind from East
Sunrise 6:38 AM
Sunset 8:45 PM
Moon Last Quarter

Today is forecast to be Much Cooler than yesterday. Mainly cloudy with rain, windy.

Pressure 29.75 in
Visibility 10.0 miles
Clouds Clear
Windchill 40 °F
Dew Point 35 °F
Humidity 64%
Rainfall 0.00 in
Snow Depth Not available.
UV 0 out of 16
Pollen 10.70 out of 12
Air Quality Not available.
Flu Activity Sporadic
METAR KMOT 230654Z AUTO 10014G22KT 10SM CLR 08/01 A2973 RMK AO2 SLP072 T00830006

More Conditions Fewer Conditions

Pressure 29.75 in
Visibility 10.0 miles
Clouds Clear
Windchill 40 °F
Dew Point 35 °F
Humidity 64%
Rainfall 0.00 in
Snow Depth Not available.
UV 0 out of 16
Pollen 10.70 out of 12
Air Quality Not available.
Flu Activity Sporadic
METAR KMOT 230654Z AUTO 10014G22KT 10SM CLR 08/01 A2973 RMK AO2 SLP072 T00830006

More Conditions Fewer Conditions

10-Day Weather Forecast

Almanac

Astronomy

Apr. 23, 2014 Rise Set
Actual Time 6:38 AM CDT 8:45 PM CDT
Civil Twilight 6:04 AM CDT 9:19 PM CDT
Nautical Twilight 5:22 AM CDT 10:01 PM CDT
Astronomical Twilight 4:35 AM CDT 10:49 PM CDT
Moon 3:39 AM CDT 2:29 PM CDT
Length of Visible Light 15h 15m
Length of Day
14h 07m
Tomorrow will be 3m 15s longer.
Last Quarter, 39% of the Moon is Illuminated
Today
Last Quarter
Apr 29
New
May 6
First Quarter
May 14
Full
May 21
Last Quarter

Today's Extremes

State Highs State Lows

Community

  • April Sunset
    April Sunset
  • Waiting..
    Waiting..
  • Sunset...
    Sunset...
  • Happy outdoor day
    Happy outdoor day
  • mystic afternoon....
    mystic afternoon....

WunderPhotos

Upload Photos

1,704,233 photos uploaded!

WunderBlogs® & News

By Dr. Jeff Masters
Director of Meteorology, Weather Underground
By Kari Strenfel
Meteorologist, Weather Underground
By Christopher C. Burt
Weather Historian, Weather Underground
April 23, 2014
April 22, 2014
April 22, 2014

Nearby

Snow Depth

Station Depth Elevation
No new snow has been reported.

Coastal Water Temperatures

Place Temperature
No Stations Reporting

Earthquake Activity

City Distance Mag. Time & Date
No recent earthquake activity has been reported nearby.
Minimum magnitude displayed is 2.5.

Nearby Weather Stations

Station Location Temp. Windchill Dew Point Humidity Wind Precip. Elev Updated Type
Deering Mobile Home Estates, Deering, ND 46.6 °F 40 °F 35 °F 64% East  at  17.6 mph - / hr 1549 ft 2:13 AM CDT Normal
Dakota Park South Minot, Minot, ND 47.3 °F 40 °F 40 °F 77% SE  at  22.1 mph 0.00 in / hr 1750 ft 2:25 AM CDT Rapid Fire

Show More Stations Show Fewer Stations

What do you think?

We're not finished. Please let us know what you like, what you don't like, and what you are still missing.